createdAt,value
2019-02-14T00:00:03.880Z,16.27
2019-02-14T00:02:30.164Z,14.80
2019-02-14T00:04:56.400Z,14.13
2019-02-14T00:07:22.588Z,17.87
2019-02-14T00:09:48.891Z,15.17
2019-02-14T00:12:15.128Z,20.70
2019-02-14T00:14:41.391Z,25.87
2019-02-14T00:17:07.656Z,20.13
2019-02-14T00:19:33.848Z,22.53
2019-02-14T00:22:00.088Z,19.27
2019-02-14T00:24:26.295Z,21.57
2019-02-14T00:26:52.530Z,20.10
2019-02-14T00:29:18.724Z,23.03
2019-02-14T00:31:44.952Z,22.17
2019-02-14T00:34:11.159Z,20.77
2019-02-14T00:36:37.556Z,18.33
2019-02-14T00:39:04.311Z,23.03
2019-02-14T00:41:30.517Z,23.77
2019-02-14T00:43:56.699Z,22.57
2019-02-14T00:46:22.935Z,19.13
2019-02-14T00:48:49.163Z,19.63
2019-02-14T00:51:15.358Z,20.20
2019-02-14T00:53:41.588Z,21.13
2019-02-14T00:56:07.798Z,24.73
2019-02-14T00:58:34.191Z,20.63
2019-02-14T01:01:00.405Z,22.40
2019-02-14T01:03:26.658Z,17.63
2019-02-14T01:05:52.987Z,20.93
2019-02-14T01:08:19.184Z,21.50
2019-02-14T01:10:45.504Z,21.33
2019-02-14T01:13:11.702Z,19.10
2019-02-14T01:15:38.016Z,23.57
2019-02-14T01:18:04.232Z,20.63
2019-02-14T01:20:30.567Z,15.83
2019-02-14T01:22:56.779Z,15.53
2019-02-14T01:25:22.976Z,17.40
2019-02-14T01:27:49.171Z,15.83
2019-02-14T01:30:15.363Z,14.27
2019-02-14T01:32:41.582Z,14.33
2019-02-14T01:35:08.201Z,17.07
2019-02-14T01:37:34.529Z,14.67
2019-02-14T01:40:00.856Z,15.27
2019-02-14T01:42:27.261Z,13.33
2019-02-14T01:44:53.476Z,15.70
2019-02-14T01:47:19.700Z,15.03
2019-02-14T01:49:45.893Z,17.30
2019-02-14T01:52:12.232Z,14.73
2019-02-14T01:54:38.500Z,14.73
2019-02-14T01:57:04.721Z,13.93
2019-02-14T01:59:30.981Z,14.67
2019-02-14T02:01:57.455Z,13.77
2019-02-14T02:04:23.676Z,16.20
2019-02-14T02:06:49.900Z,14.13
2019-02-14T02:09:16.136Z,15.67
2019-02-14T02:11:42.437Z,13.43
2019-02-14T02:14:08.735Z,15.60
2019-02-14T02:16:35.047Z,17.43
2019-02-14T02:19:01.337Z,13.27
2019-02-14T02:21:27.665Z,14.67
2019-02-14T02:23:53.961Z,13.20
2019-02-14T02:26:20.188Z,13.03
2019-02-14T02:28:46.429Z,13.93
2019-02-14T02:31:12.718Z,14.40
2019-02-14T02:33:39.022Z,15.13
2019-02-14T02:36:05.220Z,18.30
2019-02-14T02:38:31.584Z,12.90
2019-02-14T02:40:57.794Z,13.40
2019-02-14T02:43:24.248Z,12.97
2019-02-14T02:45:50.433Z,12.20
2019-02-14T02:48:16.764Z,12.00
2019-02-14T02:50:42.971Z,15.13
2019-02-14T02:53:09.206Z,10.90
2019-02-14T02:55:35.399Z,14.80
2019-02-14T02:58:01.650Z,12.13
2019-02-14T03:00:27.947Z,11.63
2019-02-14T03:02:54.172Z,11.20
2019-02-14T03:05:20.387Z,12.53
2019-02-14T03:07:46.581Z,12.90
2019-02-14T03:10:12.875Z,12.67
2019-02-14T03:12:39.190Z,11.63
2019-02-14T03:15:08.795Z,13.40
2019-02-14T03:17:35.117Z,12.00
2019-02-14T03:20:01.308Z,12.83
2019-02-14T03:22:27.704Z,11.40
2019-02-14T03:24:53.931Z,11.83
2019-02-14T03:27:20.252Z,11.83
2019-02-14T03:29:46.535Z,12.10
2019-02-14T03:32:12.750Z,13.83
2019-02-14T03:34:38.935Z,12.53
2019-02-14T03:37:05.156Z,10.23
2019-02-14T03:39:31.379Z,11.53
2019-02-14T03:41:57.564Z,12.40
2019-02-14T03:44:23.783Z,9.53
2019-02-14T03:46:49.984Z,10.13
2019-02-14T03:49:16.189Z,9.60
2019-02-14T03:51:42.499Z,11.47
2019-02-14T03:54:08.694Z,10.37
2019-02-14T03:56:34.880Z,12.00
2019-02-14T03:59:01.096Z,55.27
2019-02-14T04:01:27.381Z,43.13
2019-02-14T04:03:53.771Z,21.67
2019-02-14T04:06:27.115Z,20.83
2019-02-14T04:08:48.231Z,21.33
2019-02-14T04:11:14.545Z,17.50
2019-02-14T04:13:40.742Z,12.80
2019-02-14T04:16:06.952Z,10.30
2019-02-14T04:18:33.273Z,9.57
2019-02-14T04:20:59.578Z,9.77
2019-02-14T04:23:25.794Z,11.77
2019-02-14T04:25:52.135Z,12.20
2019-02-14T04:28:18.341Z,12.10
2019-02-14T04:30:44.637Z,11.63
2019-02-14T04:33:10.823Z,11.23
2019-02-14T04:35:37.039Z,12.10
2019-02-14T04:38:03.237Z,12.07
2019-02-14T04:40:33.577Z,13.57
2019-02-14T04:42:57.648Z,13.77
2019-02-14T04:45:23.838Z,14.40
2019-02-14T04:47:50.051Z,14.40
2019-02-14T04:50:16.256Z,13.63
2019-02-14T04:52:42.483Z,14.20
2019-02-14T04:55:09.587Z,15.50
2019-02-14T04:57:35.898Z,10.90
2019-02-14T05:00:07.747Z,15.37
2019-02-14T05:02:33.983Z,13.90
2019-02-14T05:05:00.347Z,15.57
2019-02-14T05:07:26.708Z,12.47
2019-02-14T05:09:52.915Z,13.27
2019-02-14T05:12:19.142Z,11.30
2019-02-14T05:14:45.387Z,10.73
2019-02-14T05:17:11.587Z,12.77
2019-02-14T05:19:37.814Z,11.23
2019-02-14T05:22:04.043Z,10.87
2019-02-14T05:24:30.224Z,9.80
2019-02-14T05:26:56.450Z,8.90
2019-02-14T05:29:22.655Z,11.20
2019-02-14T05:31:48.836Z,12.87
2019-02-14T05:34:15.065Z,11.27
2019-02-14T05:36:41.255Z,10.40
2019-02-14T05:39:07.464Z,13.20
2019-02-14T05:41:33.668Z,11.87
2019-02-14T05:43:59.892Z,10.20
2019-02-14T05:46:26.487Z,14.30
2019-02-14T05:48:52.677Z,11.10
2019-02-14T05:51:22.013Z,13.93
2019-02-14T05:53:48.206Z,17.40
2019-02-14T05:56:14.415Z,12.80
2019-02-14T05:58:40.647Z,16.30
2019-02-14T06:01:07.627Z,17.20
2019-02-14T06:03:33.880Z,14.40
2019-02-14T06:06:00.101Z,20.57
2019-02-14T06:08:26.378Z,19.47
2019-02-14T06:10:52.588Z,15.30
2019-02-14T06:13:18.955Z,15.80
2019-02-14T06:15:45.146Z,15.23
2019-02-14T06:18:11.411Z,14.13
2019-02-14T06:20:37.603Z,16.73
2019-02-14T06:23:03.932Z,14.20
2019-02-14T06:25:30.142Z,18.40
2019-02-14T06:27:56.458Z,15.53
2019-02-14T06:30:22.661Z,17.60
2019-02-14T06:32:48.984Z,19.13
2019-02-14T06:35:15.194Z,26.10
2019-02-14T06:37:41.437Z,18.57
2019-02-14T06:40:11.807Z,19.07
2019-02-14T06:42:37.999Z,17.43
2019-02-14T06:45:07.516Z,25.83
2019-02-14T06:47:33.835Z,17.33
2019-02-14T06:50:01.030Z,18.67
2019-02-14T06:52:27.366Z,20.83
2019-02-14T06:54:53.556Z,18.30
2019-02-14T06:57:19.779Z,20.63
2019-02-14T06:59:45.980Z,18.87
2019-02-14T07:02:12.197Z,21.13
2019-02-14T07:04:38.399Z,19.20
2019-02-14T07:07:04.630Z,14.03
2019-02-14T07:09:30.923Z,17.97
2019-02-14T07:11:57.121Z,15.97
2019-02-14T07:14:23.337Z,17.10
2019-02-14T07:16:49.729Z,15.40
2019-02-14T07:19:16.074Z,16.50
2019-02-14T07:21:42.308Z,14.97
2019-02-14T07:24:08.515Z,17.53
2019-02-14T07:26:34.740Z,14.77
2019-02-14T07:29:00.936Z,20.33
2019-02-14T07:31:27.163Z,21.27
2019-02-14T07:33:53.475Z,14.40
2019-02-14T07:36:19.959Z,19.70
2019-02-14T07:38:46.283Z,12.40
2019-02-14T07:41:12.595Z,18.00
2019-02-14T07:43:38.806Z,16.53
2019-02-14T07:46:05.019Z,20.90
2019-02-14T07:48:31.235Z,25.10
2019-02-14T07:50:57.457Z,15.53
2019-02-14T07:53:23.684Z,26.70
2019-02-14T07:55:49.871Z,37.33
2019-02-14T07:58:16.120Z,29.10
2019-02-14T08:00:42.356Z,31.90
2019-02-14T08:03:08.649Z,30.67
2019-02-14T08:05:34.902Z,35.83
2019-02-14T08:08:01.298Z,28.33
2019-02-14T08:10:27.508Z,30.30
2019-02-14T08:12:53.712Z,35.93
2019-02-14T08:15:19.918Z,49.80
2019-02-14T08:17:46.227Z,40.90
2019-02-14T08:20:15.651Z,41.40
2019-02-14T08:22:41.870Z,49.70
2019-02-14T08:25:09.871Z,27.87
2019-02-14T08:27:36.071Z,17.50
2019-02-14T08:30:05.071Z,14.30
2019-02-14T08:32:31.340Z,16.50
2019-02-14T08:34:57.594Z,14.77
2019-02-14T08:37:23.819Z,14.63
2019-02-14T08:39:50.027Z,14.80
2019-02-14T08:42:16.222Z,16.93
2019-02-14T08:44:42.423Z,16.37
2019-02-14T08:47:08.629Z,16.00
2019-02-14T08:49:35.320Z,18.00
2019-02-14T08:52:01.580Z,17.03
2019-02-14T08:54:28.036Z,13.97
2019-02-14T08:56:54.243Z,11.90
2019-02-14T08:59:20.462Z,12.30
2019-02-14T09:01:46.662Z,13.60
2019-02-14T09:04:12.981Z,13.17
2019-02-14T09:06:39.230Z,11.83
2019-02-14T09:09:05.539Z,13.23
2019-02-14T09:11:31.759Z,8.43
2019-02-14T09:13:57.983Z,7.07
2019-02-14T09:16:24.269Z,11.77
2019-02-14T09:18:50.562Z,14.60
2019-02-14T09:21:16.815Z,12.07
2019-02-14T09:23:43.048Z,11.73
2019-02-14T09:26:09.477Z,14.87
2019-02-14T09:28:36.111Z,17.80
2019-02-14T09:31:02.416Z,13.23
2019-02-14T09:33:28.730Z,12.67
2019-02-14T09:35:54.953Z,13.73
2019-02-14T09:38:21.171Z,5.60
2019-02-14T09:40:47.497Z,10.80
2019-02-14T09:43:13.704Z,8.17
2019-02-14T09:45:39.983Z,4.00
2019-02-14T09:48:06.175Z,6.13
2019-02-14T09:50:32.620Z,4.57
2019-02-14T09:52:58.927Z,8.80
2019-02-14T09:55:25.183Z,4.30
2019-02-14T09:57:51.412Z,4.23
2019-02-14T10:00:17.996Z,7.47
2019-02-14T10:02:44.427Z,4.30
2019-02-14T10:05:10.765Z,5.00
2019-02-14T10:07:37.203Z,8.40
2019-02-14T10:10:07.313Z,4.63
2019-02-14T10:12:33.679Z,8.30
2019-02-14T10:14:59.886Z,8.67
2019-02-14T10:17:26.071Z,5.13
2019-02-14T10:19:52.406Z,4.67
2019-02-14T10:22:18.732Z,3.73
2019-02-14T10:24:45.071Z,3.70
2019-02-14T10:27:11.320Z,5.10
2019-02-14T10:29:37.545Z,5.23
2019-02-14T10:32:04.149Z,4.80
2019-02-14T10:34:30.372Z,6.20
2019-02-14T10:36:56.592Z,4.90
2019-02-14T10:39:22.953Z,4.57
2019-02-14T10:41:49.151Z,6.00
2019-02-14T10:44:15.366Z,6.30
2019-02-14T10:46:41.560Z,5.43
2019-02-14T10:49:07.770Z,5.70
2019-02-14T10:51:33.967Z,4.00
2019-02-14T10:54:00.163Z,4.20
2019-02-14T10:56:26.388Z,4.27
2019-02-14T10:58:52.591Z,5.23
2019-02-14T11:01:19.240Z,4.17
2019-02-14T11:03:45.626Z,3.23
2019-02-14T11:06:11.927Z,3.27
2019-02-14T11:08:38.156Z,3.53
2019-02-14T11:11:04.676Z,5.27
2019-02-14T11:13:31.095Z,7.00
2019-02-14T11:15:57.431Z,5.70
2019-02-14T11:18:23.673Z,4.50
2019-02-14T11:20:50.099Z,14.53
2019-02-14T11:23:16.321Z,6.17
2019-02-14T11:25:42.664Z,4.33
2019-02-14T11:28:10.616Z,4.80
2019-02-14T11:30:36.931Z,6.80
2019-02-14T11:33:03.254Z,7.83
2019-02-14T11:35:29.577Z,5.03
2019-02-14T11:37:55.884Z,4.93
2019-02-14T11:40:22.055Z,7.43
2019-02-14T11:42:48.292Z,4.53
2019-02-14T11:45:17.088Z,6.90
2019-02-14T11:47:43.305Z,6.00
2019-02-14T11:50:10.359Z,5.93
2019-02-14T11:52:36.649Z,5.73
2019-02-14T11:55:04.555Z,5.47
2019-02-14T11:57:30.855Z,4.83
2019-02-14T11:59:57.075Z,4.33
2019-02-14T12:02:23.304Z,3.87
2019-02-14T12:04:49.538Z,7.00
2019-02-14T12:07:15.824Z,8.93
2019-02-14T12:09:42.003Z,7.63
2019-02-14T12:12:08.317Z,4.87
2019-02-14T12:14:34.549Z,7.03
2019-02-14T12:17:00.779Z,4.37
2019-02-14T12:19:27.013Z,4.63
2019-02-14T12:21:53.247Z,4.53
2019-02-14T12:24:19.492Z,4.57
2019-02-14T12:26:45.801Z,4.53
2019-02-14T12:29:12.034Z,4.60
2019-02-14T12:31:38.369Z,4.53
2019-02-14T12:34:04.766Z,6.33
2019-02-14T12:36:31.116Z,4.63
2019-02-14T12:38:57.419Z,6.43
2019-02-14T12:41:23.611Z,7.00
2019-02-14T12:43:49.841Z,4.97
2019-02-14T12:46:16.088Z,6.17
2019-02-14T12:48:42.366Z,4.77
2019-02-14T12:51:08.600Z,4.43
2019-02-14T12:53:34.818Z,5.43
2019-02-14T12:56:01.135Z,4.63
2019-02-14T12:58:27.350Z,5.70
2019-02-14T13:00:53.555Z,5.60
2019-02-14T13:03:19.788Z,4.10
2019-02-14T13:05:46.165Z,4.93
2019-02-14T13:08:12.415Z,3.67
2019-02-14T13:10:38.597Z,4.17
2019-02-14T13:13:04.928Z,7.77
2019-02-14T13:15:31.264Z,3.40
2019-02-14T13:17:57.689Z,3.63
2019-02-14T13:20:23.908Z,3.87
2019-02-14T13:22:50.246Z,3.77
2019-02-14T13:25:16.847Z,3.80
2019-02-14T13:27:43.055Z,4.03
2019-02-14T13:30:18.358Z,4.03
2019-02-14T13:32:44.714Z,5.10
2019-02-14T13:35:11.627Z,6.33
2019-02-14T13:37:40.015Z,4.80
2019-02-14T13:40:06.469Z,4.30
2019-02-14T13:42:32.804Z,7.00
2019-02-14T13:44:59.000Z,4.23
2019-02-14T13:47:27.105Z,4.53
2019-02-14T13:49:53.327Z,11.33
2019-02-14T13:52:19.545Z,5.10
2019-02-14T13:54:45.770Z,4.07
2019-02-14T13:57:12.099Z,3.90
2019-02-14T13:59:38.304Z,4.37
2019-02-14T14:02:04.647Z,7.23
2019-02-14T14:04:30.860Z,4.10
2019-02-14T14:06:57.143Z,4.43
2019-02-14T14:09:23.471Z,3.70
2019-02-14T14:11:49.714Z,3.90
2019-02-14T14:14:15.940Z,4.60
2019-02-14T14:16:42.167Z,5.23
2019-02-14T14:19:08.391Z,6.80
2019-02-14T14:21:34.595Z,4.87
2019-02-14T14:24:00.800Z,4.50
2019-02-14T14:26:27.061Z,4.43
2019-02-14T14:28:53.364Z,5.40
2019-02-14T14:31:19.670Z,8.33
2019-02-14T14:33:46.112Z,6.13
2019-02-14T14:36:12.327Z,4.20
2019-02-14T14:38:38.672Z,6.20
2019-02-14T14:41:04.977Z,5.77
2019-02-14T14:43:33.296Z,7.17
2019-02-14T14:46:04.131Z,5.57
2019-02-14T14:48:32.351Z,6.87
2019-02-14T14:50:58.712Z,5.10
2019-02-14T14:53:25.064Z,5.83
2019-02-14T14:55:51.373Z,6.77
2019-02-14T14:58:17.759Z,7.03
2019-02-14T15:00:44.215Z,4.87
2019-02-14T15:03:10.510Z,7.70
2019-02-14T15:05:36.727Z,6.70
2019-02-14T15:08:03.105Z,6.40
2019-02-14T15:10:29.303Z,7.93
2019-02-14T15:12:55.555Z,6.60
2019-02-14T15:15:21.766Z,4.50
2019-02-14T15:17:48.067Z,3.70
2019-02-14T15:20:14.269Z,3.90
2019-02-14T15:22:40.483Z,3.67
2019-02-14T15:25:06.832Z,7.63
2019-02-14T15:27:33.245Z,3.60
2019-02-14T15:29:59.467Z,3.87
2019-02-14T15:32:25.819Z,6.40
2019-02-14T15:34:52.315Z,4.20
2019-02-14T15:37:18.596Z,6.70
2019-02-14T15:39:44.947Z,3.33
2019-02-14T15:42:11.252Z,3.67
2019-02-14T15:44:37.713Z,4.17
2019-02-14T15:47:04.038Z,6.77
2019-02-14T15:49:30.336Z,3.33
2019-02-14T15:51:56.589Z,5.20
2019-02-14T15:54:22.865Z,9.57
2019-02-14T15:56:49.187Z,7.43
2019-02-14T15:59:16.861Z,5.93
2019-02-14T16:01:44.435Z,6.50
2019-02-14T16:04:10.774Z,6.30
2019-02-14T16:06:37.236Z,23.03
2019-02-14T16:09:04.412Z,11.60
2019-02-14T16:11:30.627Z,5.50
2019-02-14T16:13:57.236Z,7.87
2019-02-14T16:16:24.194Z,9.83
2019-02-14T16:18:50.497Z,10.43
2019-02-14T16:21:16.830Z,11.40
2019-02-14T16:23:43.041Z,12.47
2019-02-14T16:26:09.383Z,14.93
2019-02-14T16:28:37.671Z,8.50
2019-02-14T16:31:03.987Z,9.73
2019-02-14T16:33:30.214Z,7.57
2019-02-14T16:35:56.522Z,5.93
2019-02-14T16:38:22.869Z,8.40
2019-02-14T16:40:49.084Z,6.37
2019-02-14T16:43:15.332Z,9.53
2019-02-14T16:45:41.632Z,8.23
2019-02-14T16:48:07.950Z,5.73
2019-02-14T16:50:34.182Z,7.17
2019-02-14T16:53:00.671Z,9.23
2019-02-14T16:55:27.026Z,9.27
2019-02-14T16:57:53.219Z,7.67
2019-02-14T17:00:19.510Z,7.33
2019-02-14T17:02:45.806Z,9.27
2019-02-14T17:05:12.188Z,13.23
2019-02-14T17:07:38.527Z,8.10
2019-02-14T17:10:08.239Z,7.57
2019-02-14T17:12:34.577Z,9.20
2019-02-14T17:15:00.863Z,7.80
2019-02-14T17:17:28.021Z,8.70
2019-02-14T17:19:54.433Z,13.93
2019-02-14T17:22:20.823Z,10.67
2019-02-14T17:24:47.146Z,14.90
2019-02-14T17:27:13.460Z,9.73
2019-02-14T17:29:39.858Z,11.70
2019-02-14T17:32:06.309Z,10.87
2019-02-14T17:34:32.664Z,16.03
2019-02-14T17:36:58.886Z,17.97
2019-02-14T17:39:25.181Z,22.20
2019-02-14T17:41:51.543Z,20.90
2019-02-14T17:44:17.946Z,30.23
2019-02-14T17:46:44.463Z,37.60
2019-02-14T17:49:10.705Z,45.93
2019-02-14T17:51:37.119Z,44.70
2019-02-14T17:54:03.537Z,62.53
2019-02-14T17:56:29.794Z,79.40
2019-02-14T17:58:56.114Z,62.30
2019-02-14T18:01:22.513Z,69.93
2019-02-14T18:03:48.735Z,51.37
2019-02-14T18:06:15.009Z,48.83
2019-02-14T18:08:41.244Z,40.30
2019-02-14T18:11:07.506Z,43.87
2019-02-14T18:13:33.735Z,39.60
2019-02-14T18:16:00.032Z,39.10
2019-02-14T18:18:26.419Z,34.97
2019-02-14T18:20:52.872Z,29.13
2019-02-14T18:23:19.118Z,24.40
2019-02-14T18:25:45.396Z,26.57
2019-02-14T18:28:11.711Z,24.63
2019-02-14T18:30:38.174Z,16.00
2019-02-14T18:33:04.398Z,24.00
2019-02-14T18:35:30.627Z,23.30
2019-02-14T18:37:56.933Z,20.87
2019-02-14T18:40:23.192Z,22.37
2019-02-14T18:42:49.639Z,21.90
2019-02-14T18:45:16.085Z,25.57
2019-02-14T18:47:42.447Z,24.80
2019-02-14T18:50:10.594Z,22.83
2019-02-14T18:52:37.178Z,26.87
2019-02-14T18:55:05.789Z,19.50
2019-02-14T18:57:32.122Z,23.23
2019-02-14T18:59:58.621Z,19.80
2019-02-14T19:02:24.946Z,22.13
2019-02-14T19:04:51.287Z,19.70
2019-02-14T19:07:17.518Z,28.93
2019-02-14T19:09:44.123Z,19.70
2019-02-14T19:12:10.820Z,24.53
2019-02-14T19:14:37.273Z,57.70
2019-02-14T19:17:03.635Z,64.37
2019-02-14T19:19:29.945Z,45.47
2019-02-14T19:21:56.194Z,29.63
2019-02-14T19:24:22.439Z,25.77
2019-02-14T19:26:48.706Z,22.20
2019-02-14T19:29:14.947Z,19.07
2019-02-14T19:31:41.331Z,18.03
2019-02-14T19:34:07.585Z,15.77
2019-02-14T19:36:33.901Z,17.00
2019-02-14T19:39:00.236Z,23.13
2019-02-14T19:41:26.572Z,19.87
2019-02-14T19:43:52.896Z,12.40
2019-02-14T19:46:19.130Z,15.40
2019-02-14T19:48:45.385Z,18.30
2019-02-14T19:51:11.701Z,14.20
2019-02-14T19:53:37.913Z,13.40
2019-02-14T19:56:04.342Z,13.57
2019-02-14T19:58:31.154Z,14.00
2019-02-14T20:00:57.379Z,16.30
2019-02-14T20:03:23.721Z,14.20
2019-02-14T20:05:50.221Z,13.00
2019-02-14T20:08:16.462Z,10.90
2019-02-14T20:10:42.796Z,14.13
2019-02-14T20:13:09.036Z,12.00
2019-02-14T20:15:37.507Z,12.67
2019-02-14T20:18:03.579Z,15.23
2019-02-14T20:20:29.833Z,14.20
2019-02-14T20:22:56.158Z,12.80
2019-02-14T20:25:24.580Z,11.83
2019-02-14T20:27:50.857Z,13.00
2019-02-14T20:30:17.285Z,14.17
2019-02-14T20:32:43.532Z,10.23
2019-02-14T20:35:09.927Z,16.93
2019-02-14T20:37:36.168Z,14.17
2019-02-14T20:40:05.575Z,13.77
2019-02-14T20:42:32.392Z,14.27
2019-02-14T20:44:58.624Z,15.00
2019-02-14T20:47:24.940Z,21.20
2019-02-14T20:49:51.183Z,16.50
2019-02-14T20:52:17.413Z,16.97
2019-02-14T20:54:43.635Z,15.33
2019-02-14T20:57:09.987Z,20.83
2019-02-14T20:59:36.234Z,14.87
2019-02-14T21:02:02.727Z,15.27
2019-02-14T21:04:29.200Z,18.40
2019-02-14T21:06:55.688Z,15.13
2019-02-14T21:09:22.046Z,16.43
2019-02-14T21:11:54.457Z,15.87
2019-02-14T21:14:16.640Z,15.57
2019-02-14T21:16:42.997Z,16.97
2019-02-14T21:19:09.304Z,13.07
2019-02-14T21:21:35.649Z,14.60
2019-02-14T21:24:01.981Z,15.00
2019-02-14T21:26:28.413Z,16.67
2019-02-14T21:28:54.735Z,12.00
2019-02-14T21:31:20.984Z,17.57
2019-02-14T21:33:47.415Z,12.83
2019-02-14T21:36:13.720Z,14.73
2019-02-14T21:38:40.030Z,15.13
2019-02-14T21:41:06.391Z,15.23
2019-02-14T21:43:32.690Z,14.10
2019-02-14T21:45:58.906Z,15.10
2019-02-14T21:48:25.168Z,15.63
2019-02-14T21:50:51.502Z,17.10
2019-02-14T21:53:17.810Z,16.57
2019-02-14T21:55:44.376Z,18.80
2019-02-14T21:58:10.678Z,22.33
2019-02-14T22:00:36.991Z,19.50
2019-02-14T22:03:03.290Z,20.33
2019-02-14T22:05:29.687Z,17.80
2019-02-14T22:07:56.049Z,19.10
2019-02-14T22:10:22.535Z,18.93
2019-02-14T22:12:48.815Z,21.97
2019-02-14T22:15:20.775Z,19.47
2019-02-14T22:17:47.103Z,20.67
2019-02-14T22:20:13.543Z,16.10
2019-02-14T22:22:40.587Z,17.47
2019-02-14T22:25:08.774Z,17.93
2019-02-14T22:27:35.017Z,16.10
2019-02-14T22:30:01.485Z,14.80
2019-02-14T22:32:27.805Z,16.17
2019-02-14T22:34:54.136Z,16.30
2019-02-14T22:37:20.439Z,17.03
2019-02-14T22:39:46.798Z,22.07
2019-02-14T22:42:13.073Z,16.33
2019-02-14T22:44:39.288Z,18.00
2019-02-14T22:47:05.595Z,19.03
2019-02-14T22:49:34.879Z,16.23
2019-02-14T22:52:01.127Z,18.83
2019-02-14T22:54:27.347Z,20.30
2019-02-14T22:56:53.550Z,17.53
2019-02-14T22:59:19.945Z,14.77
2019-02-14T23:01:48.532Z,17.03
2019-02-14T23:04:15.120Z,16.43
2019-02-14T23:06:41.339Z,18.27
2019-02-14T23:09:07.547Z,19.70
2019-02-14T23:11:33.754Z,16.33
2019-02-14T23:14:00.015Z,17.20
2019-02-14T23:16:26.211Z,14.27
2019-02-14T23:18:52.438Z,17.87
2019-02-14T23:21:18.641Z,18.37
2019-02-14T23:23:44.843Z,15.00
2019-02-14T23:26:11.041Z,15.63
2019-02-14T23:28:37.373Z,16.30
2019-02-14T23:31:03.597Z,17.43
2019-02-14T23:33:30.023Z,15.20
2019-02-14T23:35:56.364Z,17.80
2019-02-14T23:38:22.549Z,14.83
2019-02-14T23:40:48.796Z,14.50
2019-02-14T23:43:15.011Z,14.50
2019-02-14T23:45:41.215Z,17.80
2019-02-14T23:48:07.445Z,15.53
2019-02-14T23:50:33.642Z,12.53
2019-02-14T23:52:59.856Z,18.27
2019-02-14T23:55:26.172Z,15.47
2019-02-14T23:57:52.543Z,17.63
